Time;durP1;ratioP1;P1;durP2;ratioP2;P2;SDS_P1;SDS_P2;PMS_P1;PMS_P2;Temp;Humidity;BMP_temperature;BMP_pressure;BME280_temperature;BME280_humidity;BME280_pressure;Samples;Min_cycle;Max_cycle;Signal;HPM_P1;HPM_P2
2023/07/10 00:04:50;;;;;;;11.87;6.73;;;;;;;22.49;100.00;99028.34;10371349;28;20540;-69
2023/07/10 00:09:51;;;;;;;12.05;6.60;;;;;;;22.49;100.00;99043.75;10369898;28;20276;-70
2023/07/10 00:14:52;;;;;;;11.25;6.55;;;;;;;22.45;100.00;99058.94;10369897;28;20115;-68
2023/07/10 00:19:52;;;;;;;10.60;7.03;;;;;;;22.34;100.00;99048.16;10369368;28;20057;-69
2023/07/10 00:24:53;;;;;;;10.50;6.50;;;;;;;22.32;100.00;99042.22;10369460;28;20060;-69
2023/07/10 00:29:54;;;;;;;9.18;6.78;;;;;;;22.07;100.00;98999.81;10369803;28;20061;-70
2023/07/10 00:34:55;;;;;;;10.50;7.35;;;;;;;22.29;100.00;99026.56;10369075;28;20063;-70
2023/07/10 00:39:55;;;;;;;9.10;6.50;;;;;;;22.25;100.00;99013.84;10368762;28;20128;-69
2023/07/10 00:45:03;;;;;;;12.75;7.55;;;;;;;22.07;100.00;99004.41;10368356;28;20042;-71
2023/07/10 00:50:12;;;;;;;11.02;7.25;;;;;;;21.96;100.00;99022.59;10369490;28;20034;-70
2023/07/10 00:55:28;;;;;;;10.15;7.60;;;;;;;21.94;100.00;99026.66;10368914;28;20067;-70
2023/07/10 01:00:30;;;;;;;13.07;6.60;;;;;;;21.88;100.00;99033.97;10368459;28;20390;-70
2023/07/10 01:05:32;;;;;;;11.63;6.15;;;;;;;21.87;100.00;99038.56;10368539;28;20462;-67
2023/07/10 01:10:32;;;;;;;10.05;6.75;;;;;;;21.88;100.00;99050.97;10368488;28;20390;-68
2023/07/10 01:15:33;;;;;;;11.48;7.15;;;;;;;21.79;100.00;99047.22;10368232;28;20083;-69
2023/07/10 01:20:46;;;;;;;8.52;6.88;;;;;;;21.89;100.00;99040.97;10368380;28;20053;-69
2023/07/10 01:25:59;;;;;;;9.20;6.82;;;;;;;21.80;100.00;99026.41;10368359;28;20033;-69
2023/07/10 01:31:02;;;;;;;;;;;;;;;21.97;100.00;99042.31;10368506;28;20149;-67
2023/07/10 01:36:06;;;;;;;7.75;6.55;;;;;;;21.73;100.00;99029.38;10367540;28;19928;-68
2023/07/10 01:41:39;;;;;;;7.60;6.30;;;;;;;21.84;100.00;99055.31;10367067;28;20065;-68
2023/07/10 01:46:40;;;;;;;10.15;6.70;;;;;;;21.78;100.00;99039.41;10367316;28;20480;-67
2023/07/10 01:51:40;;;;;;;20.73;6.82;;;;;;;21.79;100.00;99036.41;10367254;28;20046;-67
2023/07/10 01:56:42;;;;;;;11.80;7.00;;;;;;;21.49;100.00;98966.22;10366847;28;20042;-66
2023/07/10 02:01:42;;;;;;;10.18;6.95;;;;;;;21.79;100.00;99035.59;10367143;28;20050;-69
2023/07/10 02:06:43;;;;;;;11.55;7.60;;;;;;;21.80;100.00;99048.81;10363394;28;20038;-68
2023/07/10 02:11:44;;;;;;;11.43;7.38;;;;;;;21.74;100.00;99031.00;10365315;28;20121;-69
2023/07/10 02:16:44;;;;;;;10.75;7.25;;;;;;;21.84;100.00;99051.81;10366580;28;20046;-68
2023/07/10 02:21:46;;;;;;;9.27;6.47;;;;;;;21.92;100.00;99066.66;10365611;28;20046;-70
2023/07/10 02:26:47;;;;;;;10.45;6.85;;;;;;;21.57;100.00;98995.38;10365843;28;20046;-69
2023/07/10 02:31:50;;;;;;;12.43;6.90;;;;;;;21.96;100.00;99046.13;10366007;28;20062;-69
2023/07/10 02:36:51;;;;;;;10.85;7.05;;;;;;;22.03;100.00;99043.91;10365395;28;20046;-69
2023/07/10 02:41:52;;;;;;;7.78;6.03;;;;;;;22.23;100.00;99062.81;10364213;28;20045;-69
2023/07/10 02:46:53;;;;;;;9.25;6.15;;;;;;;22.27;100.00;99039.53;10366364;28;20094;-67
2023/07/10 02:51:53;;;;;;;8.63;6.57;;;;;;;22.27;100.00;99039.53;10366344;28;20049;-69
2023/07/10 02:56:54;;;;;;;10.35;6.18;;;;;;;22.24;100.00;99028.47;10364980;28;20118;-68
2023/07/10 03:01:55;;;;;;;8.77;6.03;;;;;;;22.08;100.00;99008.75;10365564;28;20132;-67
2023/07/10 03:06:56;;;;;;;7.07;5.18;;;;;;;22.07;100.00;99013.34;10367397;28;20049;-72
2023/07/10 03:11:56;;;;;;;8.88;4.65;;;;;;;22.13;100.00;99014.13;10372961;28;20046;-67
2023/07/10 03:16:59;;;;;;;5.82;4.60;;;;;;;21.81;100.00;98973.97;10371565;28;20442;-66
2023/07/10 03:22:00;;;;;;;6.22;4.68;;;;;;;21.51;100.00;98931.59;10370137;28;20037;-67
2023/07/10 03:27:00;;;;;;;7.55;5.05;;;;;;;21.92;100.00;98999.06;10371929;28;20042;-66
2023/07/10 03:32:01;;;;;;;9.00;5.88;;;;;;;21.97;100.00;99009.88;10370071;28;20061;-66
2023/07/10 03:37:03;;;;;;;8.68;6.10;;;;;;;22.11;100.00;99022.53;10370970;28;20041;-68
2023/07/10 03:42:04;;;;;;;8.38;6.25;;;;;;;22.15;100.00;98992.22;10370682;28;20053;-67
2023/07/10 03:47:05;;;;;;;6.57;5.75;;;;;;;22.29;100.00;98996.78;10371271;28;20042;-64
2023/07/10 03:52:06;;;;;;;7.78;6.30;;;;;;;22.45;100.00;99008.34;10371148;28;20046;-65
2023/07/10 03:57:07;;;;;;;8.95;6.28;;;;;;;22.50;100.00;99012.94;10369025;28;20048;-65
2023/07/10 04:02:07;;;;;;;10.10;6.28;;;;;;;22.55;100.00;99018.28;10367039;28;20050;-65
2023/07/10 04:07:08;;;;;;;10.45;6.93;;;;;;;22.62;100.00;99026.94;10367183;28;20094;-64
2023/07/10 04:12:09;;;;;;;14.45;7.43;;;;;;;22.37;100.00;98971.03;10368603;28;20098;-67
2023/07/10 04:17:14;;;;;;;10.77;6.90;;;;;;;22.63;100.00;99012.31;10369303;28;20494;-64
2023/07/10 04:22:14;;;;;;;11.98;7.60;;;;;;;22.75;100.00;99020.88;10362776;28;20045;-64
2023/07/10 04:27:15;;;;;;;8.52;6.85;;;;;;;22.91;100.00;99026.19;10356814;28;20081;-66
2023/07/10 04:32:16;;;;;;;9.05;7.05;;;;;;;22.95;100.00;99036.22;10360390;28;20057;-65
2023/07/10 04:37:17;;;;;;;9.93;7.30;;;;;;;22.62;100.00;98970.09;10367700;28;20497;-64
2023/07/10 04:42:17;;;;;;;10.80;6.05;;;;;;;23.15;100.00;99040.69;10369036;28;20413;-63
2023/07/10 04:47:18;;;;;;;8.50;6.57;;;;;;;22.77;100.00;98970.00;10368877;28;20049;-64
2023/07/10 04:52:19;;;;;;;13.75;6.65;;;;;;;23.27;100.00;99023.25;10369105;28;20038;-67
2023/07/10 04:57:19;;;;;;;10.13;6.28;;;;;;;23.21;100.00;98976.44;10365795;28;20185;-64
2023/07/10 05:02:20;;;;;;;8.07;5.53;;;;;;;23.72;100.00;99030.19;10367177;28;20420;-65
2023/07/10 05:07:21;;;;;;;9.55;5.95;;;;;;;23.86;100.00;99023.00;10366603;28;20046;-65
2023/07/10 05:12:21;;;;;;;6.72;4.57;;;;;;;23.87;100.00;99030.03;10368042;28;20044;-65
2023/07/10 05:17:22;;;;;;;9.88;4.68;;;;;;;23.71;100.00;99017.72;10368632;28;20072;-64
2023/07/10 05:22:23;;;;;;;5.93;4.32;;;;;;;23.80;100.00;99028.75;10367394;28;20052;-65
2023/07/10 05:27:23;;;;;;;7.03;3.88;;;;;;;23.71;100.00;99030.47;10367398;28;20038;-65
2023/07/10 05:32:24;;;;;;;5.90;3.92;;;;;;;23.63;100.00;99021.84;10367511;28;20061;-65
2023/07/10 05:37:26;;;;;;;9.88;3.88;;;;;;;23.64;100.00;99028.88;10367334;28;20050;-65
2023/07/10 05:42:26;;;;;;;10.38;4.45;;;;;;;23.70;100.00;99024.25;10367599;28;20136;-66
2023/07/10 05:47:27;;;;;;;8.15;4.25;;;;;;;24.07;100.00;99018.16;10367474;28;20060;-66
2023/07/10 05:52:28;;;;;;;6.88;3.80;;;;;;;24.44;100.00;99021.25;10367390;28;20449;-67
2023/07/10 05:57:28;;;;;;;7.05;4.15;;;;;;;24.63;100.00;98991.41;10366581;28;20038;-68
2023/07/10 06:02:29;;;;;;;5.80;3.58;;;;;;;24.78;98.39;98980.31;10367221;28;20045;-67
2023/07/10 06:07:30;;;;;;;10.32;3.80;;;;;;;25.14;97.62;99015.13;10366233;28;20044;-70
2023/07/10 06:12:31;;;;;;;8.10;3.47;;;;;;;25.08;97.12;99008.13;10366198;28;20497;-67
2023/07/10 06:17:31;;;;;;;7.82;3.50;;;;;;;24.88;97.62;98961.13;10366063;28;20095;-67
2023/07/10 06:22:32;;;;;;;6.95;4.13;;;;;;;24.98;96.20;98987.34;10366807;28;20041;-67
2023/07/10 06:27:33;;;;;;;13.63;3.53;;;;;;;25.10;96.04;98998.56;10365693;28;20580;-67
2023/07/10 06:32:35;;;;;;;6.93;3.50;;;;;;;25.37;96.10;98995.16;10366594;28;20053;-67
2023/07/10 06:37:36;;;;;;;7.63;3.97;;;;;;;25.30;95.71;98939.56;10365659;28;20044;-67
2023/07/10 06:42:37;;;;;;;5.30;3.20;;;;;;;25.35;94.49;98928.59;10368870;28;20129;-67
2023/07/10 06:47:41;;;;;;;7.18;3.28;;;;;;;25.96;92.57;99012.56;10373094;28;20136;-68
2023/07/10 06:52:42;;;;;;;;;;;;;;;26.76;91.12;99013.09;10373380;28;20511;-68
2023/07/10 06:57:44;;;;;;;5.38;3.08;;;;;;;26.64;86.16;98944.72;10372302;28;19917;-69
2023/07/10 07:02:44;;;;;;;3.80;2.88;;;;;;;26.47;83.26;98890.88;10372048;28;20046;-70
2023/07/10 07:07:45;;;;;;;7.43;3.05;;;;;;;27.10;80.67;98943.59;10372717;28;20065;-70
2023/07/10 07:12:46;;;;;;;4.47;2.90;;;;;;;27.72;79.66;99006.38;10371667;28;20042;-69
2023/07/10 07:17:47;;;;;;;4.93;2.80;;;;;;;28.06;78.60;99015.03;10371576;28;20413;-69
2023/07/10 07:22:47;;;;;;;7.28;2.85;;;;;;;27.99;77.40;99010.03;10371314;28;20042;-70
2023/07/10 07:27:48;;;;;;;5.50;2.80;;;;;;;28.13;75.91;99009.94;10372072;28;20041;-69
2023/07/10 07:32:49;;;;;;;3.85;2.75;;;;;;;28.25;73.97;99014.78;10371758;28;20466;-69
2023/07/10 07:37:50;;;;;;;4.68;2.85;;;;;;;28.14;73.40;99012.31;10372021;28;20057;-69
2023/07/10 07:42:51;;;;;;;3.83;2.80;;;;;;;27.93;74.33;98984.81;10371357;28;20048;-70
2023/07/10 07:47:52;;;;;;;6.10;2.55;;;;;;;28.06;73.08;99007.66;10371661;28;20037;-68
2023/07/10 07:52:53;;;;;;;3.53;2.40;;;;;;;27.95;72.99;98996.22;10370572;28;20074;-67
2023/07/10 07:57:54;;;;;;;4.68;2.30;;;;;;;27.92;73.22;98988.66;10370311;28;20044;-69
2023/07/10 08:02:55;;;;;;;4.05;2.33;;;;;;;28.10;72.44;98983.25;10370241;28;20042;-69
2023/07/10 08:07:55;;;;;;;3.97;2.47;;;;;;;28.15;71.03;99016.69;10370740;28;20133;-69
2023/07/10 08:12:56;;;;;;;4.72;2.08;;;;;;;28.14;69.55;98984.22;10370228;28;20573;-68
2023/07/10 08:17:57;;;;;;;3.88;2.28;;;;;;;28.14;69.44;98938.63;10369697;28;20042;-69
2023/07/10 08:22:58;;;;;;;3.47;2.20;;;;;;;28.56;68.84;98995.56;10369344;28;20038;-68
2023/07/10 08:28:00;;;;;;;4.90;2.10;;;;;;;28.54;68.34;98995.91;10369848;28;20095;-71
2023/07/10 08:33:00;;;;;;;3.72;2.22;;;;;;;28.53;67.86;98991.53;10370432;28;20080;-69
2023/07/10 08:38:01;;;;;;;3.38;2.00;;;;;;;28.41;67.83;98936.75;10368964;28;20099;-70
2023/07/10 08:43:17;;;;;;;3.35;2.00;;;;;;;28.96;66.33;98976.25;10368746;28;20420;-69
2023/07/10 08:48:29;;;;;;;3.53;2.05;;;;;;;29.43;65.04;98988.13;10369424;28;20516;-70
2023/07/10 08:53:32;;;;;;;2.70;1.77;;;;;;;29.31;64.41;98977.03;10368529;28;20041;-71
2023/07/10 08:58:38;;;;;;;2.50;1.90;;;;;;;29.22;65.35;98984.47;10368981;28;20091;-71
2023/07/10 09:03:47;;;;;;;4.07;2.00;;;;;;;29.85;66.42;98969.16;10366385;28;20046;-70
2023/07/10 09:08:51;;;;;;;3.53;1.45;;;;;;;29.84;63.61;98939.38;10368281;28;20066;-68
2023/07/10 09:14:36;;;;;;;6.50;1.70;;;;;;;30.41;63.89;98990.94;10369039;28;20071;-69
2023/07/10 09:19:42;;;;;;;2.67;1.60;;;;;;;29.72;61.63;98964.72;10373709;28;20062;-70
2023/07/10 09:24:42;;;;;;;3.40;1.48;;;;;;;29.55;63.70;98982.75;10366817;28;20073;-69
2023/07/10 09:29:48;;;;;;;2.22;1.58;;;;;;;29.16;64.88;98928.34;10367337;28;20461;-70
2023/07/10 09:34:58;;;;;;;2.53;1.60;;;;;;;29.67;63.15;98995.00;10367282;28;20052;-70
2023/07/10 09:40:20;;;;;;;2.67;1.67;;;;;;;29.55;61.60;98993.72;10367206;28;20038;-69
2023/07/10 09:45:20;;;;;;;;;;;;;;;29.66;63.74;98996.94;10367984;28;20046;-70
2023/07/10 09:50:21;;;;;;;2.60;1.50;;;;;;;29.60;61.48;98995.47;10367430;28;19917;-69
2023/07/10 09:55:23;;;;;;;2.88;1.45;;;;;;;29.35;60.58;98942.47;10367194;28;20489;-69
2023/07/10 10:00:25;;;;;;;6.70;1.38;;;;;;;29.73;60.59;99002.69;10367493;28;20038;-68
2023/07/10 10:05:27;;;;;;;9.95;6.38;;;;;;;29.75;59.75;98991.44;10367417;28;20049;-70
2023/07/10 10:10:33;;;;;;;4.68;2.80;;;;;;;29.65;59.58;98980.84;10366149;28;20046;-72
2023/07/10 10:16:06;;;;;;;4.55;1.80;;;;;;;29.96;58.48;99005.97;10366428;28;20098;-68
2023/07/10 10:21:14;;;;;;;6.13;1.40;;;;;;;29.85;58.88;99002.00;10362461;28;20045;-69
2023/07/10 10:26:27;;;;;;;5.82;2.72;;;;;;;30.06;58.85;99009.47;10366261;28;20046;-67
2023/07/10 10:31:35;;;;;;;3.17;1.63;;;;;;;29.97;57.42;98980.19;10366125;28;20157;-64
2023/07/10 10:37:18;;;;;;;5.75;1.30;;;;;;;30.22;58.35;98989.44;10364689;28;20057;-64
2023/07/10 10:42:30;;;;;;;2.55;1.40;;;;;;;30.26;57.05;98989.56;10364952;28;20088;-63
2023/07/10 10:47:38;;;;;;;;;;;;;;;30.44;57.94;98988.31;10343877;28;20046;-65
2023/07/10 10:52:59;;;;;;;1.83;1.20;;;;;;;29.61;56.39;98936.06;10354003;28;19922;-65
2023/07/10 10:58:02;;;;;;;2.50;1.48;;;;;;;29.66;56.86;98938.66;10344643;28;20445;-66
2023/07/10 11:03:24;;;;;;;2.38;1.30;;;;;;;29.75;57.11;98969.53;10342266;28;20489;-66
2023/07/10 11:08:31;;;;;;;4.25;1.50;;;;;;;29.48;58.49;98998.09;10342342;28;20113;-65
2023/07/10 11:13:39;;;;;;;2.53;1.40;;;;;;;28.98;56.54;99012.28;10342874;28;20573;-65
2023/07/10 11:18:40;;;;;;;2.42;1.50;;;;;;;28.81;58.68;99018.59;10351839;28;20041;-64
2023/07/10 11:23:41;;;;;;;4.97;1.75;;;;;;;28.68;58.85;99015.66;10354135;28;20464;-65
2023/07/10 11:28:53;;;;;;;7.40;1.80;;;;;;;28.51;59.34;99025.75;10345195;28;20117;-66
2023/07/10 11:34:24;;;;;;;2.05;1.40;;;;;;;28.28;60.90;99052.38;10356157;28;20142;-64
2023/07/10 11:39:40;;;;;;;3.00;1.73;;;;;;;27.82;62.84;99064.53;10351909;28;20047;-65
2023/07/10 11:44:45;;;;;;;9.02;1.70;;;;;;;27.11;64.01;99013.38;10348994;28;20052;-67
2023/07/10 11:50:03;;;;;;;5.10;1.95;;;;;;;27.33;64.47;99055.41;10354287;28;20103;-65
2023/07/10 11:55:12;;;;;;;7.50;1.65;;;;;;;27.38;66.60;99060.75;10353591;28;20052;-65
2023/07/10 12:00:13;;;;;;;3.00;1.42;;;;;;;27.04;65.52;98980.28;10368991;28;20439;-64
2023/07/10 12:05:16;;;;;;;3.80;1.20;;;;;;;27.69;63.98;99030.75;10370031;28;20050;-64
2023/07/10 12:10:17;;;;;;;4.15;1.00;;;;;;;28.13;62.68;99057.13;10369889;28;20091;-65
2023/07/10 12:15:18;;;;;;;2.90;1.10;;;;;;;28.38;61.46;99090.31;10370244;28;20083;-66
2023/07/10 12:20:30;;;;;;;4.25;1.00;;;;;;;28.22;60.34;99081.75;10369160;28;20041;-65
2023/07/10 12:25:31;;;;;;;4.70;1.20;;;;;;;27.66;61.44;99026.72;10366282;28;20417;-65
2023/07/10 12:30:32;;;;;;;2.38;1.20;;;;;;;27.52;62.88;99029.56;10366381;28;20072;-65
2023/07/10 12:35:37;;;;;;;1.65;1.08;;;;;;;27.84;62.93;99089.59;10368862;28;20041;-66
2023/07/10 12:40:39;;;;;;;4.18;1.08;;;;;;;27.85;63.08;99107.56;10344055;28;20129;-65
2023/07/10 12:45:41;;;;;;;2.08;0.95;;;;;;;27.85;62.12;99107.56;10366125;28;20034;-67
2023/07/10 12:50:51;;;;;;;2.70;1.40;;;;;;;27.67;62.58;99114.81;10328666;28;20050;-65
2023/07/10 12:56:06;;;;;;;4.72;1.02;;;;;;;27.71;62.83;99111.16;10361179;28;20120;-64
2023/07/10 13:01:32;;;;;;;5.53;1.05;;;;;;;28.05;62.64;99134.34;10367035;28;20042;-64
2023/07/10 13:06:34;;;;;;;1.92;0.90;;;;;;;27.55;62.46;99066.28;10368100;28;20052;-63
2023/07/10 13:11:34;;;;;;;3.05;1.13;;;;;;;27.59;64.28;99151.84;10368440;28;20038;-64
2023/07/10 13:16:44;;;;;;;3.15;0.90;;;;;;;27.40;64.86;99145.75;10367773;28;20053;-65
2023/07/10 13:21:45;;;;;;;1.95;0.77;;;;;;;27.12;65.47;99147.75;10364522;28;20129;-65
2023/07/10 13:26:49;;;;;;;6.28;1.13;;;;;;;26.82;66.62;99153.53;10360443;28;20059;-65
2023/07/10 13:31:51;;;;;;;2.15;1.00;;;;;;;26.54;67.73;99147.31;10360180;28;20065;-65
2023/07/10 13:36:52;;;;;;;1.38;1.00;;;;;;;26.22;69.07;99128.31;10362235;28;20102;-66
2023/07/10 13:41:53;;;;;;;1.80;1.10;;;;;;;26.09;69.18;99119.81;10359712;28;20106;-65
2023/07/10 13:46:53;;;;;;;2.17;1.23;;;;;;;26.02;68.74;99124.84;10363211;28;20045;-66
2023/07/10 13:51:54;;;;;;;2.90;0.90;;;;;;;26.31;68.52;99148.28;10366265;28;20057;-66
2023/07/10 13:56:58;;;;;;;21.85;1.65;;;;;;;26.02;68.63;99099.53;10362278;28;20030;-67
2023/07/10 14:02:00;;;;;;;4.78;1.50;;;;;;;26.50;67.26;99170.78;10359499;28;20041;-66
2023/07/10 14:07:01;;;;;;;2.90;1.63;;;;;;;26.09;66.79;99100.78;10358520;28;20037;-66
2023/07/10 14:12:14;;;;;;;3.15;1.80;;;;;;;26.65;66.02;99202.38;10348222;28;20095;-65
2023/07/10 14:17:22;;;;;;;2.40;1.50;;;;;;;25.96;68.05;99173.09;10348910;28;20141;-65
2023/07/10 14:22:34;;;;;;;17.77;2.97;;;;;;;25.85;69.09;99239.69;10351575;28;20051;-65
2023/07/10 14:27:39;;;;;;;5.70;2.00;;;;;;;25.09;70.25;99189.06;10361932;28;20053;-65
2023/07/10 14:32:40;;;;;;;4.90;2.22;;;;;;;25.25;70.76;99255.75;10338401;28;20085;-65
2023/07/10 14:37:40;;;;;;;4.68;2.05;;;;;;;24.96;71.78;99258.50;10325310;28;20047;-65
2023/07/10 14:42:42;;;;;;;4.57;1.30;;;;;;;24.72;72.57;99272.09;10325524;28;20095;-64
2023/07/10 14:47:44;;;;;;;14.25;1.75;;;;;;;24.58;73.65;99283.59;10335937;28;20042;-65
2023/07/10 14:52:45;;;;;;;2.40;1.30;;;;;;;24.41;73.94;99283.22;10362751;28;20061;-65
2023/07/10 14:57:46;;;;;;;5.97;1.98;;;;;;;24.26;74.89;99299.59;10364721;28;20394;-65
2023/07/10 15:02:47;;;;;;;3.80;2.53;;;;;;;23.63;75.56;99235.19;10367302;28;20558;-64
2023/07/10 15:07:56;;;;;;;3.00;2.50;;;;;;;23.91;76.23;99323.19;10372128;28;20037;-64
2023/07/10 15:13:02;;;;;;;3.65;2.30;;;;;;;23.27;76.40;99267.09;10372757;28;20056;-64
2023/07/10 15:18:03;;;;;;;11.27;3.00;;;;;;;23.15;77.66;99295.31;10370114;28;20453;-65
2023/07/10 15:23:04;;;;;;;3.38;2.33;;;;;;;23.29;77.92;99368.72;10367609;28;20378;-64
2023/07/10 15:28:05;;;;;;;3.35;2.40;;;;;;;22.93;78.90;99373.38;10370366;28;20042;-64
2023/07/10 15:33:12;;;;;;;7.43;2.58;;;;;;;22.40;80.40;99321.41;10370967;28;20057;-65
2023/07/10 15:38:18;;;;;;;4.03;3.20;;;;;;;22.69;80.80;99389.38;10370745;28;20045;-64
2023/07/10 15:43:23;;;;;;;4.72;2.90;;;;;;;22.67;80.91;99397.75;10367835;28;20416;-64
2023/07/10 15:48:24;;;;;;;4.20;3.80;;;;;;;22.49;80.57;99382.03;10369593;28;20042;-65
2023/07/10 15:53:28;;;;;;;8.43;4.85;;;;;;;22.58;80.88;99393.16;10368503;28;20053;-64
2023/07/10 15:58:29;;;;;;;5.90;4.20;;;;;;;22.60;80.14;99408.03;10369402;28;20098;-65
2023/07/10 16:03:32;;;;;;;5.65;4.50;;;;;;;22.65;80.17;99418.88;10367299;28;20095;-64
2023/07/10 16:08:36;;;;;;;5.45;4.00;;;;;;;22.58;79.95;99399.38;10367019;28;20504;-65
2023/07/10 16:13:38;;;;;;;5.22;3.95;;;;;;;22.56;79.86;99429.44;10369820;28;20073;-65
2023/07/10 16:18:38;;;;;;;11.50;4.25;;;;;;;22.47;79.93;99441.06;10362800;28;20045;-64
2023/07/10 16:23:40;;;;;;;7.93;4.25;;;;;;;22.42;80.10;99449.16;10368164;28;20442;-66
2023/07/10 16:28:41;;;;;;;11.38;4.47;;;;;;;22.34;79.75;99450.47;10370671;28;20038;-65
2023/07/10 16:33:42;;;;;;;5.47;3.83;;;;;;;21.97;79.78;99410.06;10370016;28;20098;-64
2023/07/10 16:38:43;;;;;;;7.95;4.03;;;;;;;22.10;79.59;99453.63;10368417;28;20432;-64
2023/07/10 16:43:44;;;;;;;7.07;3.85;;;;;;;22.06;79.26;99457.16;10369471;28;20056;-65
2023/07/10 16:48:49;;;;;;;5.97;4.10;;;;;;;21.85;79.41;99440.03;10366849;28;20046;-64
2023/07/10 16:53:52;;;;;;;4.43;3.75;;;;;;;21.64;79.87;99422.91;10366866;28;20046;-65
2023/07/10 16:58:53;;;;;;;8.30;3.90;;;;;;;21.80;80.09;99437.28;10367511;28;20128;-64
2023/07/10 17:03:56;;;;;;;7.22;3.88;;;;;;;21.43;79.99;99403.88;10368003;28;20148;-64
2023/07/10 17:08:58;;;;;;;5.85;4.30;;;;;;;21.39;80.25;99410.91;10368317;28;20416;-65
2023/07/10 17:13:59;;;;;;;6.57;3.78;;;;;;;21.33;80.60;99411.91;10367521;28;20480;-64
2023/07/10 17:19:00;;;;;;;5.03;4.18;;;;;;;21.76;81.02;99485.69;10365591;28;20045;-64
2023/07/10 17:24:01;;;;;;;5.65;4.00;;;;;;;21.71;81.41;99488.34;10367763;28;20489;-65
2023/07/10 17:29:02;;;;;;;6.28;4.13;;;;;;;21.64;81.62;99495.88;10366679;28;20057;-64
2023/07/10 17:34:04;;;;;;;8.93;4.53;;;;;;;21.50;81.82;99490.13;10366451;28;20050;-64
2023/07/10 17:39:19;;;;;;;5.38;4.13;;;;;;;21.64;83.28;99523.72;10365678;28;20159;-64
2023/07/10 17:44:29;;;;;;;6.40;3.85;;;;;;;21.41;83.38;99503.28;10363024;28;20405;-64
2023/07/10 17:49:30;;;;;;;5.43;3.80;;;;;;;21.17;82.66;99461.50;10367039;28;20041;-64
2023/07/10 17:54:34;;;;;;;5.05;4.03;;;;;;;21.40;82.40;99506.28;10366555;28;20045;-66
2023/07/10 17:59:34;;;;;;;5.97;4.68;;;;;;;21.22;82.87;99476.94;10365050;28;20494;-65
2023/07/10 18:04:35;;;;;;;8.13;4.63;;;;;;;21.39;82.80;99508.16;10366330;28;20140;-64
2023/07/10 18:09:36;;;;;;;8.50;4.63;;;;;;;21.43;83.12;99517.38;10366969;28;20042;-65
2023/07/10 18:14:37;;;;;;;5.13;3.60;;;;;;;21.25;83.23;99488.03;10366089;28;20034;-64
2023/07/10 18:19:37;;;;;;;5.68;4.20;;;;;;;21.47;83.60;99524.94;10366488;28;20151;-65
2023/07/10 18:24:39;;;;;;;5.40;4.03;;;;;;;21.43;83.87;99538.97;10366306;28;20163;-64
2023/07/10 18:29:39;;;;;;;4.93;3.90;;;;;;;21.42;84.03;99536.56;10364320;28;20500;-65
2023/07/10 18:34:40;;;;;;;5.75;4.07;;;;;;;21.42;84.21;99523.84;10365171;28;20120;-65
2023/07/10 18:39:42;;;;;;;5.45;3.63;;;;;;;21.34;84.54;99509.97;10372347;28;20444;-65
2023/07/10 18:44:42;;;;;;;4.93;3.75;;;;;;;21.31;84.85;99500.50;10373514;28;20038;-66
2023/07/10 18:49:43;;;;;;;8.15;4.28;;;;;;;21.35;85.57;99509.69;10373134;28;20048;-66
2023/07/10 18:54:44;;;;;;;6.40;4.20;;;;;;;20.95;85.83;99437.31;10370822;28;20046;-65
2023/07/10 18:59:45;;;;;;;7.97;3.83;;;;;;;21.38;85.84;99524.63;10372252;28;20152;-65
2023/07/10 19:04:46;;;;;;;6.03;4.05;;;;;;;20.93;86.44;99445.66;10371964;28;20382;-66
2023/07/10 19:09:48;;;;;;;4.95;3.80;;;;;;;21.50;86.52;99530.66;10372536;28;20137;-66
2023/07/10 19:14:49;;;;;;;8.93;3.78;;;;;;;21.48;86.46;99526.56;10370121;28;20125;-65
2023/07/10 19:19:52;;;;;;;5.50;3.70;;;;;;;21.04;86.59;99470.06;10370727;28;20121;-65
2023/07/10 19:24:57;;;;;;;6.13;3.70;;;;;;;21.47;86.74;99531.16;10369909;28;20050;-65
2023/07/10 19:29:58;;;;;;;6.25;3.42;;;;;;;21.40;87.22;99520.59;10369457;28;20114;-67
2023/07/10 19:35:01;;;;;;;5.78;3.60;;;;;;;21.48;87.05;99516.59;10368787;28;20056;-65
2023/07/10 19:40:16;;;;;;;5.37;3.73;;;;;;;21.40;87.31;99511.66;10368914;28;20050;-65
2023/07/10 19:45:17;;;;;;;5.10;3.70;;;;;;;21.46;86.90;99502.53;10368719;28;20050;-65
2023/07/10 19:50:19;;;;;;;5.68;3.75;;;;;;;21.45;87.13;99511.72;10368206;28;20096;-64
2023/07/10 19:55:20;;;;;;;5.32;3.33;;;;;;;21.39;87.26;99491.94;10367429;28;20030;-66
2023/07/10 20:00:26;;;;;;;7.78;3.67;;;;;;;21.55;88.01;99519.06;10367657;28;20088;-65
2023/07/10 20:05:27;;;;;;;5.03;3.25;;;;;;;21.31;87.75;99478.88;10369940;28;20049;-64
2023/07/10 20:10:28;;;;;;;5.38;2.50;;;;;;;21.34;88.01;99481.06;10370522;28;20041;-64
2023/07/10 20:15:29;;;;;;;3.95;2.65;;;;;;;21.64;88.62;99522.91;10370020;28;20559;-64
2023/07/10 20:20:31;;;;;;;5.15;3.10;;;;;;;21.60;89.24;99513.72;10369649;28;20042;-66
2023/07/10 20:25:32;;;;;;;4.40;2.75;;;;;;;21.69;89.06;99528.34;10370308;28;20042;-65
2023/07/10 20:30:33;;;;;;;3.55;2.60;;;;;;;21.75;89.33;99531.91;10368742;28;20527;-65
2023/07/10 20:35:33;;;;;;;3.20;2.38;;;;;;;21.40;88.89;99471.94;10369914;28;20042;-65
2023/07/10 20:40:34;;;;;;;5.80;2.55;;;;;;;21.75;89.13;99526.50;10369065;28;20046;-65
2023/07/10 20:45:35;;;;;;;3.80;2.40;;;;;;;21.57;89.34;99503.41;10369317;28;20042;-65
2023/07/10 20:50:41;;;;;;;5.05;3.00;;;;;;;21.29;89.71;99475.63;10369229;28;20038;-65
2023/07/10 20:55:44;;;;;;;4.72;3.40;;;;;;;21.48;91.37;99521.16;10367334;28;20136;-65
2023/07/10 21:00:47;;;;;;;7.78;3.17;;;;;;;21.46;92.44;99534.94;10367826;28;20493;-64
2023/07/10 21:05:53;;;;;;;6.35;3.15;;;;;;;21.39;93.44;99529.78;10367800;28;20034;-66
2023/07/10 21:10:54;;;;;;;7.65;3.65;;;;;;;21.25;93.05;99512.34;10368243;28;20044;-65
2023/07/10 21:15:56;;;;;;;4.32;3.28;;;;;;;21.16;93.31;99511.19;10367948;28;20409;-65
2023/07/10 21:20:57;;;;;;;6.57;3.00;;;;;;;21.25;93.69;99525.03;10368256;28;20401;-65
2023/07/10 21:26:04;;;;;;;5.18;2.95;;;;;;;20.59;94.39;99420.00;10365458;28;20053;-65
2023/07/10 21:31:05;;;;;;;4.28;2.55;;;;;;;21.29;93.84;99529.66;10366541;28;20548;-64
2023/07/10 21:36:06;;;;;;;3.47;2.65;;;;;;;21.32;93.67;99536.44;10368095;28;20069;-63
2023/07/10 21:41:26;;;;;;;7.43;2.90;;;;;;;21.41;95.50;99548.41;10367718;28;20038;-63
2023/07/10 21:46:30;;;;;;;6.53;3.10;;;;;;;21.32;94.04;99544.53;10366830;28;20042;-64
2023/07/10 21:51:30;;;;;;;;;;;;;;;21.55;92.35;99560.41;10366465;28;20382;-63
2023/07/10 22:02:28;;;;;;;5.07;2.47;;;;;;;21.57;92.78;99570.97;10367691;28;20038;-63
2023/07/10 22:07:28;;;;;;;5.38;2.78;;;;;;;21.52;92.67;99554.72;10366452;28;20046;-63
2023/07/10 22:12:29;;;;;;;4.38;2.85;;;;;;;21.36;92.68;99533.00;10364541;28;20041;-64
2023/07/10 22:17:30;;;;;;;6.13;2.05;;;;;;;21.52;92.10;99546.63;10366252;28;20084;-63
2023/07/10 22:22:31;;;;;;;3.13;2.20;;;;;;;21.50;91.70;99543.34;10367322;28;20072;-63
2023/07/10 22:27:32;;;;;;;4.63;2.00;;;;;;;21.47;91.40;99544.69;10366450;28;20120;-64
2023/07/10 22:32:32;;;;;;;4.72;2.20;;;;;;;21.30;90.82;99525.91;10366578;28;20134;-63
2023/07/10 22:37:35;;;;;;;5.07;2.20;;;;;;;21.49;90.42;99545.25;10365452;28;20099;-64
2023/07/10 22:42:36;;;;;;;3.33;2.35;;;;;;;21.44;90.41;99542.50;10366228;28;20570;-65
2023/07/10 22:47:36;;;;;;;6.00;2.53;;;;;;;21.44;89.38;99547.91;10366910;28;20045;-64
2023/07/10 22:52:38;;;;;;;6.50;2.30;;;;;;;21.32;89.77;99545.34;10365784;28;20451;-64
2023/07/10 22:57:39;;;;;;;5.97;2.63;;;;;;;21.38;89.69;99557.84;10364648;28;20038;-64
2023/07/10 23:02:40;;;;;;;3.70;2.30;;;;;;;21.14;89.15;99527.63;10365689;28;20038;-65
2023/07/10 23:07:41;;;;;;;3.58;2.42;;;;;;;21.34;88.67;99559.41;10365210;28;20553;-64
2023/07/10 23:12:42;;;;;;;14.25;2.95;;;;;;;20.95;88.23;99497.50;10365263;28;20094;-64
2023/07/10 23:17:44;;;;;;;6.80;2.78;;;;;;;21.28;87.93;99555.03;10365803;28;20030;-64
2023/07/10 23:22:45;;;;;;;4.78;2.42;;;;;;;21.31;88.28;99557.22;10362738;28;20521;-64
2023/07/10 23:27:46;;;;;;;5.85;3.10;;;;;;;20.86;87.97;99496.34;10372108;28;20128;-64
2023/07/10 23:32:48;;;;;;;6.13;2.72;;;;;;;21.07;88.26;99542.44;10372307;28;20431;-63
2023/07/10 23:37:49;;;;;;;6.47;2.90;;;;;;;21.19;88.49;99552.00;10372260;28;20049;-64